createdAt,value
2022-10-20T00:00:21.048Z,5.70
2022-10-20T00:02:47.808Z,5.60
2022-10-20T00:05:14.862Z,5.70
2022-10-20T00:07:41.646Z,5.70
2022-10-20T00:10:08.829Z,5.70
2022-10-20T00:12:36.002Z,5.70
2022-10-20T00:15:03.435Z,5.60
2022-10-20T00:17:30.179Z,5.60
2022-10-20T00:19:58.425Z,5.60
2022-10-20T00:22:25.161Z,5.50
2022-10-20T00:24:52.341Z,5.50
2022-10-20T00:27:19.125Z,5.50
2022-10-20T00:29:48.093Z,5.50
2022-10-20T00:32:14.869Z,5.40
2022-10-20T00:34:41.794Z,5.40
2022-10-20T00:37:08.551Z,5.40
2022-10-20T00:39:35.330Z,5.30
2022-10-20T00:42:05.509Z,5.20
2022-10-20T00:44:53.528Z,5.20
2022-10-20T00:47:39.878Z,5.30
2022-10-20T00:50:24.480Z,5.30
2022-10-20T00:52:53.300Z,5.30
2022-10-20T00:55:30.931Z,5.40
2022-10-20T00:57:59.443Z,5.40
2022-10-20T01:00:27.540Z,5.40
2022-10-20T01:02:57.399Z,5.40
2022-10-20T01:05:24.566Z,5.30
2022-10-20T01:07:51.395Z,5.30
2022-10-20T01:10:18.726Z,5.50
2022-10-20T01:12:51.221Z,5.40
2022-10-20T01:15:26.882Z,5.40
2022-10-20T01:18:21.906Z,5.50
2022-10-20T01:21:12.468Z,5.40
2022-10-20T01:24:10.254Z,5.40
2022-10-20T01:26:55.099Z,5.40
2022-10-20T01:29:41.395Z,5.40
2022-10-20T01:32:11.265Z,5.30
2022-10-20T01:34:54.526Z,5.20
2022-10-20T01:37:48.538Z,5.10
2022-10-20T01:40:27.701Z,5.10
2022-10-20T01:42:58.470Z,5.10
2022-10-20T01:45:28.048Z,5.20
2022-10-20T01:47:56.528Z,5.10
2022-10-20T01:50:24.593Z,5.10
2022-10-20T01:52:58.945Z,5.20
2022-10-20T01:55:26.302Z,5.00
2022-10-20T01:58:14.986Z,5.00
2022-10-20T02:00:43.638Z,5.10
2022-10-20T02:03:26.372Z,5.10
2022-10-20T02:06:11.601Z,5.10
2022-10-20T02:08:41.579Z,5.30
2022-10-20T02:11:20.163Z,5.20
2022-10-20T02:13:48.545Z,5.20
2022-10-20T02:16:22.809Z,5.20
2022-10-20T02:18:49.734Z,5.30
2022-10-20T02:21:17.278Z,5.30
2022-10-20T02:23:47.646Z,5.40
2022-10-20T02:26:17.093Z,5.30
2022-10-20T02:28:48.863Z,5.30
2022-10-20T02:31:17.391Z,5.40
2022-10-20T02:33:46.202Z,5.40
2022-10-20T02:36:18.470Z,5.30
2022-10-20T02:38:45.648Z,5.20
2022-10-20T02:41:12.901Z,5.20
2022-10-20T02:43:39.734Z,5.20
2022-10-20T02:46:06.556Z,5.20
2022-10-20T02:48:33.465Z,5.20
2022-10-20T02:51:00.322Z,5.20
2022-10-20T02:53:27.141Z,5.20
2022-10-20T02:55:53.939Z,5.30
2022-10-20T02:58:20.699Z,5.40
2022-10-20T03:00:49.997Z,5.30
2022-10-20T03:03:18.452Z,5.20
2022-10-20T03:05:46.014Z,5.20
2022-10-20T03:08:13.612Z,5.10
2022-10-20T03:10:41.626Z,5.00
2022-10-20T03:13:08.776Z,5.00
2022-10-20T03:15:35.514Z,5.00
2022-10-20T03:18:02.366Z,5.00
2022-10-20T03:20:29.152Z,5.10
2022-10-20T03:22:55.906Z,5.00
2022-10-20T03:25:22.760Z,5.10
2022-10-20T03:27:49.586Z,5.00
2022-10-20T03:30:16.438Z,4.90
2022-10-20T03:32:43.234Z,4.90
2022-10-20T03:35:10.383Z,4.80
2022-10-20T03:37:37.120Z,4.90
2022-10-20T03:40:04.148Z,4.90
2022-10-20T03:42:30.954Z,4.90
2022-10-20T03:44:57.697Z,5.00
2022-10-20T03:47:24.498Z,4.90
2022-10-20T03:49:51.255Z,4.90
2022-10-20T03:52:18.012Z,4.90
2022-10-20T03:54:44.749Z,5.00
2022-10-20T03:57:11.622Z,4.90
2022-10-20T03:59:38.384Z,4.90
2022-10-20T04:02:05.583Z,5.00
2022-10-20T04:04:32.391Z,4.80
2022-10-20T04:06:59.142Z,4.80
2022-10-20T04:09:25.902Z,4.70
2022-10-20T04:11:52.683Z,4.70
2022-10-20T04:14:19.542Z,4.80
2022-10-20T04:16:46.303Z,4.80
2022-10-20T04:19:13.126Z,4.80
2022-10-20T04:21:39.893Z,4.80
2022-10-20T04:24:07.405Z,4.80
2022-10-20T04:26:34.624Z,4.80
2022-10-20T04:29:01.393Z,4.80
2022-10-20T04:31:28.162Z,4.70
2022-10-20T04:33:54.956Z,4.70
2022-10-20T04:36:21.677Z,4.60
2022-10-20T04:38:48.423Z,4.80
2022-10-20T04:41:15.300Z,4.70
2022-10-20T04:43:42.092Z,4.80
2022-10-20T04:46:09.211Z,4.80
2022-10-20T04:48:37.499Z,4.70
2022-10-20T04:51:07.311Z,4.70
2022-10-20T04:53:34.297Z,4.80
2022-10-20T04:56:01.228Z,4.70
2022-10-20T04:58:28.487Z,4.70
2022-10-20T05:01:00.388Z,4.70
2022-10-20T05:03:27.157Z,4.80
2022-10-20T05:05:53.924Z,4.80
2022-10-20T05:08:20.640Z,4.80
2022-10-20T05:10:47.389Z,4.80
2022-10-20T05:13:14.148Z,4.90
2022-10-20T05:15:40.910Z,4.90
2022-10-20T05:18:07.707Z,4.90
2022-10-20T05:20:40.960Z,4.90
2022-10-20T05:23:08.167Z,5.00
2022-10-20T05:25:37.260Z,5.00
2022-10-20T05:28:05.184Z,5.10
2022-10-20T05:30:34.056Z,5.10
2022-10-20T05:33:00.962Z,5.00
2022-10-20T05:35:28.726Z,4.90
2022-10-20T05:37:56.184Z,4.90
2022-10-20T05:40:24.228Z,4.90
2022-10-20T05:42:51.061Z,4.90
2022-10-20T05:45:17.978Z,4.90
2022-10-20T05:47:44.796Z,4.70
2022-10-20T05:50:11.905Z,4.80
2022-10-20T05:52:38.874Z,4.80
2022-10-20T05:55:06.543Z,4.70
2022-10-20T05:57:33.265Z,4.80
2022-10-20T06:00:00.078Z,4.80
2022-10-20T06:02:26.848Z,4.80
2022-10-20T06:04:53.557Z,4.80
2022-10-20T06:07:20.396Z,4.90
2022-10-20T06:09:47.137Z,5.00
2022-10-20T06:12:13.983Z,4.90
2022-10-20T06:14:40.747Z,5.00
2022-10-20T06:17:07.833Z,4.90
2022-10-20T06:19:34.564Z,5.00
2022-10-20T06:22:04.050Z,4.90
2022-10-20T06:24:33.942Z,4.90
2022-10-20T06:27:00.655Z,5.00
2022-10-20T06:29:27.538Z,4.90
2022-10-20T06:31:55.396Z,5.10
2022-10-20T06:34:24.118Z,5.00
2022-10-20T06:36:51.703Z,4.90
2022-10-20T06:39:20.964Z,5.00
2022-10-20T06:41:53.070Z,5.10
2022-10-20T06:44:21.747Z,5.20
2022-10-20T06:46:49.139Z,5.20
2022-10-20T06:49:15.961Z,5.20
2022-10-20T06:51:42.897Z,5.00
2022-10-20T06:54:09.682Z,5.10
2022-10-20T06:56:37.406Z,5.10
2022-10-20T06:59:04.722Z,5.10
2022-10-20T07:01:38.936Z,5.10
2022-10-20T07:04:11.363Z,5.10
2022-10-20T07:06:40.347Z,5.20
2022-10-20T07:09:09.271Z,5.20
2022-10-20T07:11:36.087Z,5.20
2022-10-20T07:14:03.676Z,5.20
2022-10-20T07:16:32.889Z,5.10
2022-10-20T07:19:00.784Z,5.10
2022-10-20T07:21:32.463Z,5.10
2022-10-20T07:24:05.294Z,5.30
2022-10-20T07:26:35.125Z,5.20
2022-10-20T07:29:03.766Z,5.40
2022-10-20T07:31:36.106Z,5.50
2022-10-20T07:34:23.808Z,5.40
2022-10-20T07:36:51.440Z,5.30
2022-10-20T07:39:18.315Z,5.50
2022-10-20T07:41:47.357Z,5.50
2022-10-20T07:44:15.162Z,5.50
2022-10-20T07:46:42.061Z,5.40
2022-10-20T07:51:55.830Z,5.40
2022-10-20T07:54:22.648Z,5.40
2022-10-20T07:56:49.679Z,5.30
2022-10-20T07:59:17.274Z,5.40
2022-10-20T08:01:44.448Z,5.60
2022-10-20T08:04:11.547Z,5.60
2022-10-20T08:06:39.178Z,5.70
2022-10-20T08:09:07.317Z,5.70
2022-10-20T08:11:34.848Z,5.80
2022-10-20T08:14:01.632Z,5.60
2022-10-20T08:16:31.205Z,5.70
2022-10-20T08:21:56.941Z,5.60
2022-10-20T08:24:23.696Z,5.60
2022-10-20T08:26:50.474Z,5.60
2022-10-20T08:29:17.278Z,5.60
2022-10-20T08:31:44.972Z,5.70
2022-10-20T08:34:11.933Z,5.60
2022-10-20T08:36:38.789Z,5.60
2022-10-20T08:39:06.468Z,5.60
2022-10-20T08:41:55.239Z,5.70
2022-10-20T08:44:31.548Z,5.70
2022-10-20T08:47:01.187Z,5.70
2022-10-20T08:49:33.723Z,5.90
2022-10-20T08:52:01.395Z,5.90
2022-10-20T08:54:28.522Z,5.80
2022-10-20T08:56:55.477Z,5.80
2022-10-20T08:59:39.767Z,5.80
2022-10-20T09:02:16.660Z,5.80
2022-10-20T09:04:57.736Z,5.90
2022-10-20T09:07:32.722Z,6.00
2022-10-20T09:10:35.246Z,5.90
2022-10-20T09:13:03.189Z,5.90
2022-10-20T09:15:30.142Z,5.90
2022-10-20T09:18:00.897Z,6.00
2022-10-20T09:20:36.442Z,6.10
2022-10-20T09:23:07.928Z,6.10
2022-10-20T09:25:45.285Z,6.20
2022-10-20T09:28:42.908Z,6.30
2022-10-20T09:31:33.818Z,6.20
2022-10-20T09:34:00.942Z,6.20
2022-10-20T09:36:33.598Z,6.20
2022-10-20T09:39:01.104Z,6.10
2022-10-20T09:41:32.020Z,6.10
2022-10-20T09:44:23.948Z,6.20
2022-10-20T09:46:53.248Z,6.20
2022-10-20T09:49:24.549Z,6.10
2022-10-20T09:51:53.978Z,6.20
2022-10-20T09:54:25.089Z,6.10
2022-10-20T09:56:53.165Z,6.20
2022-10-20T09:59:27.973Z,6.10
2022-10-20T10:01:57.577Z,6.20
2022-10-20T10:04:39.139Z,6.10
2022-10-20T10:07:32.209Z,6.30
2022-10-20T10:10:02.701Z,6.40
2022-10-20T10:12:34.781Z,6.50
2022-10-20T10:15:08.111Z,6.60
2022-10-20T10:17:44.581Z,6.50
2022-10-20T10:20:28.238Z,6.60
2022-10-20T10:23:22.005Z,6.70
2022-10-20T10:25:50.089Z,6.90
2022-10-20T10:28:29.385Z,7.10
2022-10-20T10:31:18.897Z,7.00
2022-10-20T10:33:45.835Z,7.00
2022-10-20T10:36:25.647Z,7.10
2022-10-20T10:38:52.630Z,7.20
2022-10-20T10:41:38.959Z,7.20
2022-10-20T10:44:20.990Z,7.40
2022-10-20T10:47:08.654Z,7.60
2022-10-20T10:50:02.076Z,7.70
2022-10-20T10:52:50.241Z,7.80
2022-10-20T10:55:49.520Z,8.10
2022-10-20T10:58:19.330Z,8.10
2022-10-20T11:01:19.938Z,8.20
2022-10-20T11:04:20.657Z,8.10
2022-10-20T11:07:23.224Z,8.20
2022-10-20T11:10:10.761Z,7.90
2022-10-20T11:13:22.977Z,7.80
2022-10-20T11:16:18.936Z,7.60
2022-10-20T11:18:48.403Z,7.70
2022-10-20T11:21:26.911Z,7.80
2022-10-20T11:24:08.621Z,7.80
2022-10-20T11:26:43.217Z,7.80
2022-10-20T11:29:31.054Z,7.80
2022-10-20T11:32:09.767Z,7.80
2022-10-20T11:34:46.602Z,7.70
2022-10-20T11:37:26.641Z,7.80
2022-10-20T11:40:11.674Z,7.90
2022-10-20T11:43:11.207Z,7.80
2022-10-20T11:46:00.227Z,7.70
2022-10-20T11:48:30.688Z,7.80
2022-10-20T11:51:31.265Z,7.70
2022-10-20T11:54:10.077Z,7.80
2022-10-20T11:57:14.606Z,7.60
2022-10-20T11:59:56.599Z,7.50
2022-10-20T12:02:48.108Z,7.50
2022-10-20T12:05:17.835Z,7.50
2022-10-20T12:08:24.583Z,7.50
2022-10-20T12:10:56.479Z,7.50
2022-10-20T12:13:48.109Z,7.30
2022-10-20T12:17:06.951Z,7.00
2022-10-20T12:19:35.429Z,7.00
2022-10-20T12:22:13.954Z,7.00
2022-10-20T12:24:42.110Z,7.10
2022-10-20T12:27:08.839Z,7.20
2022-10-20T12:29:35.575Z,7.20
2022-10-20T12:32:36.435Z,7.20
2022-10-20T12:35:12.352Z,7.20
2022-10-20T12:37:42.230Z,7.20
2022-10-20T12:40:11.505Z,7.30
2022-10-20T12:42:46.097Z,7.40
2022-10-20T12:45:18.622Z,7.30
2022-10-20T12:47:56.062Z,7.30
2022-10-20T12:50:36.793Z,7.30
2022-10-20T12:53:33.014Z,7.30
2022-10-20T12:56:08.929Z,7.30
2022-10-20T12:58:36.743Z,7.30
2022-10-20T13:01:09.951Z,7.30
2022-10-20T13:03:46.822Z,7.30
2022-10-20T13:06:22.392Z,7.30
2022-10-20T13:09:04.549Z,7.40
2022-10-20T13:11:46.848Z,7.30
2022-10-20T13:14:13.643Z,7.40
2022-10-20T13:17:00.097Z,7.40
2022-10-20T13:19:33.693Z,7.40
2022-10-20T13:22:35.261Z,7.30
2022-10-20T13:25:05.223Z,7.30
2022-10-20T13:27:32.223Z,7.40
2022-10-20T13:29:59.079Z,7.40
2022-10-20T13:33:11.472Z,7.40
2022-10-20T13:35:59.853Z,7.40
2022-10-20T13:39:00.370Z,7.40
2022-10-20T13:41:42.471Z,7.40
2022-10-20T13:44:31.241Z,7.30
2022-10-20T13:47:20.117Z,7.20
2022-10-20T13:50:02.899Z,7.30
2022-10-20T13:52:37.825Z,7.30
2022-10-20T13:55:06.587Z,7.40
2022-10-20T13:57:35.966Z,7.30
2022-10-20T14:00:25.809Z,7.40
2022-10-20T14:02:57.058Z,7.40
2022-10-20T14:05:25.948Z,7.40
2022-10-20T14:07:53.312Z,7.40
2022-10-20T14:10:37.067Z,7.50
2022-10-20T14:13:07.456Z,7.30
2022-10-20T14:15:36.324Z,7.40
2022-10-20T14:18:08.123Z,7.30
2022-10-20T14:20:41.958Z,7.20
2022-10-20T14:23:11.351Z,7.20
2022-10-20T14:25:39.531Z,7.20
2022-10-20T14:28:07.642Z,7.20
2022-10-20T14:30:38.703Z,7.20
2022-10-20T14:33:18.366Z,7.10
2022-10-20T14:35:51.231Z,7.20
2022-10-20T14:38:34.622Z,7.10
2022-10-20T14:41:02.675Z,7.00
2022-10-20T14:43:40.642Z,7.00
2022-10-20T14:46:11.987Z,7.00
2022-10-20T14:48:44.954Z,7.10
2022-10-20T14:51:30.363Z,7.10
2022-10-20T14:54:14.554Z,7.10
2022-10-20T14:56:52.269Z,7.20
2022-10-20T14:59:30.748Z,7.10
2022-10-20T15:02:12.926Z,7.00
2022-10-20T15:04:48.205Z,6.90
2022-10-20T15:07:34.842Z,7.00
2022-10-20T15:10:14.282Z,7.00
2022-10-20T15:12:44.285Z,6.90
2022-10-20T15:15:11.011Z,6.80
2022-10-20T15:17:42.848Z,7.00
2022-10-20T15:20:38.877Z,7.00
2022-10-20T15:23:10.223Z,6.90
2022-10-20T15:25:59.083Z,7.00
2022-10-20T15:28:38.845Z,7.00
2022-10-20T15:31:24.198Z,7.00
2022-10-20T15:33:52.238Z,6.90
2022-10-20T15:36:21.833Z,7.10
2022-10-20T15:38:50.114Z,7.10
2022-10-20T15:41:20.119Z,7.10
2022-10-20T15:43:47.254Z,7.10
2022-10-20T15:46:15.628Z,7.20
2022-10-20T15:48:45.692Z,7.20
2022-10-20T15:51:24.102Z,7.20
2022-10-20T15:53:51.418Z,7.10
2022-10-20T15:56:19.454Z,7.00
2022-10-20T15:58:46.306Z,7.00
2022-10-20T16:01:14.836Z,7.00
2022-10-20T16:03:43.444Z,7.00
2022-10-20T16:06:14.942Z,7.10
2022-10-20T16:08:43.128Z,7.10
2022-10-20T16:11:10.796Z,7.10
2022-10-20T16:13:41.035Z,7.10
2022-10-20T16:16:10.671Z,7.20
2022-10-20T16:18:37.462Z,7.10
2022-10-20T16:21:05.641Z,7.20
2022-10-20T16:23:35.369Z,7.30
2022-10-20T16:26:08.778Z,7.20
2022-10-20T16:28:36.302Z,7.10
2022-10-20T16:31:08.238Z,7.10
2022-10-20T16:33:35.056Z,7.20
2022-10-20T16:36:04.330Z,7.20
2022-10-20T16:38:31.491Z,7.20
2022-10-20T16:41:03.633Z,7.20
2022-10-20T16:43:30.769Z,7.10
2022-10-20T16:45:57.780Z,7.20
2022-10-20T16:48:24.993Z,7.10
2022-10-20T16:50:51.787Z,7.10
2022-10-20T16:53:18.687Z,7.10
2022-10-20T16:55:56.086Z,7.10
2022-10-20T16:58:24.015Z,7.00
2022-10-20T17:01:18.719Z,7.00
2022-10-20T17:03:47.878Z,7.00
2022-10-20T17:06:16.050Z,7.00
2022-10-20T17:08:42.902Z,7.00
2022-10-20T17:11:12.681Z,7.10
2022-10-20T17:13:40.372Z,7.00
2022-10-20T17:16:12.896Z,7.10
2022-10-20T17:18:40.576Z,7.10
2022-10-20T17:21:08.118Z,7.10
2022-10-20T17:23:41.633Z,7.10
2022-10-20T17:26:13.261Z,7.10
2022-10-20T17:28:40.083Z,7.10
2022-10-20T17:31:09.183Z,7.10
2022-10-20T17:33:37.432Z,7.10
2022-10-20T17:36:05.083Z,7.00
2022-10-20T17:38:32.377Z,7.00
2022-10-20T17:41:07.007Z,7.10
2022-10-20T17:43:34.469Z,7.00
2022-10-20T17:46:07.211Z,6.90
2022-10-20T17:48:35.869Z,7.00
2022-10-20T17:51:07.933Z,6.90
2022-10-20T17:53:36.511Z,6.80
2022-10-20T17:56:11.650Z,6.80
2022-10-20T17:58:38.592Z,6.80
2022-10-20T18:01:29.837Z,6.70
2022-10-20T18:04:02.226Z,6.80
2022-10-20T18:06:34.035Z,6.70
2022-10-20T18:09:05.016Z,6.70
2022-10-20T18:11:33.512Z,6.70
2022-10-20T18:14:00.968Z,6.60
2022-10-20T18:16:29.941Z,6.60
2022-10-20T18:19:00.439Z,6.60
2022-10-20T18:21:28.807Z,6.60
2022-10-20T18:24:06.451Z,6.60
2022-10-20T18:26:35.730Z,6.50
2022-10-20T18:29:04.750Z,6.60
2022-10-20T18:31:34.572Z,6.60
2022-10-20T18:34:07.957Z,6.60
2022-10-20T18:36:39.270Z,6.70
2022-10-20T18:39:09.543Z,6.80
2022-10-20T18:41:39.272Z,6.70
2022-10-20T18:44:10.045Z,6.80
2022-10-20T18:46:37.337Z,6.80
2022-10-20T18:49:07.149Z,6.80
2022-10-20T18:51:35.815Z,6.70
2022-10-20T18:54:04.453Z,6.70
2022-10-20T18:56:31.694Z,6.70
2022-10-20T18:59:00.699Z,6.70
2022-10-20T19:01:34.514Z,6.70
2022-10-20T19:04:02.017Z,6.70
2022-10-20T19:06:35.026Z,6.60
2022-10-20T19:09:05.530Z,6.70
2022-10-20T19:11:35.083Z,6.70
2022-10-20T19:14:02.464Z,6.70
2022-10-20T19:16:31.502Z,6.70
2022-10-20T19:19:00.257Z,6.60
2022-10-20T19:21:28.476Z,6.70
2022-10-20T19:24:04.586Z,6.70
2022-10-20T19:26:34.411Z,6.70
2022-10-20T19:29:05.983Z,6.80
2022-10-20T19:31:45.026Z,6.80
2022-10-20T19:34:21.635Z,6.70
2022-10-20T19:36:48.972Z,6.70
2022-10-20T19:39:19.385Z,6.70
2022-10-20T19:41:46.357Z,6.70
2022-10-20T19:44:15.457Z,6.60
2022-10-20T19:46:47.474Z,6.60
2022-10-20T19:49:15.113Z,6.60
2022-10-20T19:51:42.271Z,6.50
2022-10-20T19:54:10.048Z,6.60
2022-10-20T19:56:37.881Z,6.50
2022-10-20T19:59:06.152Z,6.40
2022-10-20T20:01:33.888Z,6.40
2022-10-20T20:04:00.783Z,6.50
2022-10-20T20:06:28.794Z,6.40
2022-10-20T20:08:59.379Z,6.30
2022-10-20T20:11:29.580Z,6.30
2022-10-20T20:14:02.366Z,6.40
2022-10-20T20:16:29.906Z,6.40
2022-10-20T20:18:57.072Z,6.30
2022-10-20T20:21:24.730Z,6.30
2022-10-20T20:24:00.670Z,6.40
2022-10-20T20:26:34.397Z,6.30
2022-10-20T20:29:01.577Z,6.20
2022-10-20T20:31:29.041Z,6.20
2022-10-20T20:33:59.146Z,6.20
2022-10-20T20:36:27.563Z,6.20
2022-10-20T20:38:57.314Z,6.20
2022-10-20T20:41:26.699Z,6.10
2022-10-20T20:43:54.224Z,6.10
2022-10-20T20:46:22.665Z,6.10
2022-10-20T20:48:49.807Z,6.10
2022-10-20T20:51:16.822Z,6.00
2022-10-20T20:53:43.674Z,6.10
2022-10-20T20:56:12.823Z,6.00
2022-10-20T20:58:40.754Z,6.00
2022-10-20T21:01:34.007Z,6.00
2022-10-20T21:04:05.765Z,6.00
2022-10-20T21:06:56.596Z,5.90
2022-10-20T21:09:19.881Z,5.90
2022-10-20T21:11:48.789Z,6.00
2022-10-20T21:14:15.891Z,5.90
2022-10-20T21:16:42.720Z,5.90
2022-10-20T21:19:10.620Z,5.80
2022-10-20T21:21:50.192Z,5.90
2022-10-20T21:24:18.324Z,5.80
2022-10-20T21:26:45.210Z,5.80
2022-10-20T21:29:12.017Z,5.70
2022-10-20T21:31:40.024Z,5.70
2022-10-20T21:34:07.114Z,5.80
2022-10-20T21:36:35.871Z,5.80
2022-10-20T21:39:05.571Z,5.70
2022-10-20T21:41:33.944Z,5.70
2022-10-20T21:44:02.768Z,5.70
2022-10-20T21:46:30.821Z,5.70
2022-10-20T21:49:06.045Z,5.70
2022-10-20T21:51:35.574Z,5.60
2022-10-20T21:54:06.190Z,5.60
2022-10-20T21:56:37.813Z,5.50
2022-10-20T21:59:05.871Z,5.50
2022-10-20T22:01:33.281Z,5.50
2022-10-20T22:04:00.103Z,5.40
2022-10-20T22:06:27.848Z,5.40
2022-10-20T22:08:57.761Z,5.40
2022-10-20T22:11:34.581Z,5.40
2022-10-20T22:14:01.723Z,5.40
2022-10-20T22:16:32.289Z,5.40
2022-10-20T22:19:01.573Z,5.40
2022-10-20T22:21:29.797Z,5.30
2022-10-20T22:23:58.788Z,5.30
2022-10-20T22:26:30.071Z,5.30
2022-10-20T22:28:58.496Z,5.20
2022-10-20T22:31:26.239Z,5.20
2022-10-20T22:33:54.933Z,5.20
2022-10-20T22:36:22.698Z,5.20
2022-10-20T22:38:49.469Z,5.10
2022-10-20T22:41:16.672Z,5.20
2022-10-20T22:43:43.469Z,5.20
2022-10-20T22:46:10.210Z,5.20
2022-10-20T22:48:37.130Z,5.10
2022-10-20T22:51:05.600Z,5.10
2022-10-20T22:53:32.563Z,5.20
2022-10-20T22:56:17.419Z,5.20
2022-10-20T22:58:44.231Z,5.00
2022-10-20T23:01:20.591Z,5.00
2022-10-20T23:03:48.012Z,5.10
2022-10-20T23:06:17.826Z,5.10
2022-10-20T23:08:47.330Z,5.00
2022-10-20T23:11:14.864Z,5.00
2022-10-20T23:13:42.131Z,5.00
2022-10-20T23:16:09.508Z,5.00
2022-10-20T23:18:36.763Z,5.00
2022-10-20T23:21:03.953Z,5.00
2022-10-20T23:23:31.434Z,4.90
2022-10-20T23:26:00.824Z,5.00
2022-10-20T23:28:30.620Z,5.00
2022-10-20T23:31:10.860Z,4.90
2022-10-20T23:33:42.718Z,5.00
2022-10-20T23:36:10.096Z,4.90
2022-10-20T23:38:36.977Z,4.80
2022-10-20T23:41:04.763Z,4.80
2022-10-20T23:43:31.747Z,4.90
2022-10-20T23:45:58.706Z,4.90
2022-10-20T23:48:25.863Z,4.70
2022-10-20T23:50:52.630Z,4.70
2022-10-20T23:53:19.727Z,4.70
2022-10-20T23:55:46.535Z,4.60
2022-10-20T23:58:13.396Z,4.60
